sensor_id;sensor_type;location;lat;lon;timestamp;pressure;altitude;pressure_sealevel;temperature;humidity
29371;BME280;16357;52.188;7.838;2023-04-26T00:02:24;101080.09;;;5.21;59.35
29371;BME280;16357;52.188;7.838;2023-04-26T00:04:52;101087.31;;;5.19;59.26
29371;BME280;16357;52.188;7.838;2023-04-26T00:07:24;101093.72;;;5.17;58.87
29371;BME280;16357;52.188;7.838;2023-04-26T00:09:50;101095.63;;;5.15;59.34
29371;BME280;16357;52.188;7.838;2023-04-26T00:12:20;101100.34;;;5.11;59.01
29371;BME280;16357;52.188;7.838;2023-04-26T00:14:47;101092.56;;;5.08;59.22
29371;BME280;16357;52.188;7.838;2023-04-26T00:17:13;101098.97;;;5.05;59.39
29371;BME280;16357;52.188;7.838;2023-04-26T00:19:40;101092.06;;;5.03;59.36
29371;BME280;16357;52.188;7.838;2023-04-26T00:22:06;101093.16;;;5.00;59.22
29371;BME280;16357;52.188;7.838;2023-04-26T00:24:34;101099.63;;;4.96;59.38
29371;BME280;16357;52.188;7.838;2023-04-26T00:27:00;101106.88;;;4.94;59.42
29371;BME280;16357;52.188;7.838;2023-04-26T00:29:30;101103.59;;;4.91;59.23
29371;BME280;16357;52.188;7.838;2023-04-26T00:31:56;101100.19;;;4.89;59.63
29371;BME280;16357;52.188;7.838;2023-04-26T00:34:23;101096.78;;;4.87;59.63
29371;BME280;16357;52.188;7.838;2023-04-26T00:36:49;101102.31;;;4.83;59.47
29371;BME280;16357;52.188;7.838;2023-04-26T00:39:16;101098.91;;;4.81;59.60
29371;BME280;16357;52.188;7.838;2023-04-26T00:41:42;101097.47;;;4.77;59.36
29371;BME280;16357;52.188;7.838;2023-04-26T00:44:08;101095.88;;;4.75;59.50
29371;BME280;16357;52.188;7.838;2023-04-26T00:46:35;101094.28;;;4.72;59.71
29371;BME280;16357;52.188;7.838;2023-04-26T00:49:01;101089.19;;;4.69;59.30
29371;BME280;16357;52.188;7.838;2023-04-26T00:51:28;101095.56;;;4.67;59.77
29371;BME280;16357;52.188;7.838;2023-04-26T00:53:55;101089.59;;;4.63;59.44
29371;BME280;16357;52.188;7.838;2023-04-26T00:56:23;101080.94;;;4.61;59.60
29371;BME280;16357;52.188;7.838;2023-04-26T00:58:50;101084.75;;;4.57;59.63
29371;BME280;16357;52.188;7.838;2023-04-26T01:01:16;101082.31;;;4.54;59.73
29371;BME280;16357;52.188;7.838;2023-04-26T01:03:43;101081.56;;;4.52;59.86
29371;BME280;16357;52.188;7.838;2023-04-26T01:06:12;101084.34;;;4.50;60.11
29371;BME280;16357;52.188;7.838;2023-04-26T01:08:38;101090.72;;;4.48;59.70
29371;BME280;16357;52.188;7.838;2023-04-26T01:11:05;101086.47;;;4.45;59.89
29371;BME280;16357;52.188;7.838;2023-04-26T01:13:31;101086.66;;;4.42;60.24
29371;BME280;16357;52.188;7.838;2023-04-26T01:15:58;101086.03;;;4.38;60.02
29371;BME280;16357;52.188;7.838;2023-04-26T01:18:25;101083.50;;;4.37;60.16
29371;BME280;16357;52.188;7.838;2023-04-26T01:20:52;101097.81;;;4.34;60.19
29371;BME280;16357;52.188;7.838;2023-04-26T01:23:18;101088.31;;;4.32;59.93
29371;BME280;16357;52.188;7.838;2023-04-26T01:25:44;101092.03;;;4.29;60.07
29371;BME280;16357;52.188;7.838;2023-04-26T01:28:11;101090.31;;;4.28;60.19
29371;BME280;16357;52.188;7.838;2023-04-26T01:30:37;101086.91;;;4.26;60.09
29371;BME280;16357;52.188;7.838;2023-04-26T01:33:04;101091.38;;;4.26;59.63
29371;BME280;16357;52.188;7.838;2023-04-26T01:35:30;101096.06;;;4.22;59.75
29371;BME280;16357;52.188;7.838;2023-04-26T01:37:57;101092.66;;;4.20;60.24
29371;BME280;16357;52.188;7.838;2023-04-26T01:40:23;101099.00;;;4.17;59.89
29371;BME280;16357;52.188;7.838;2023-04-26T01:42:50;101094.75;;;4.15;60.11
29371;BME280;16357;52.188;7.838;2023-04-26T01:45:16;101092.34;;;4.12;60.21
29371;BME280;16357;52.188;7.838;2023-04-26T01:47:43;101093.38;;;4.09;59.91
29371;BME280;16357;52.188;7.838;2023-04-26T01:50:09;101091.78;;;4.07;59.88
29371;BME280;16357;52.188;7.838;2023-04-26T01:52:36;101088.50;;;4.03;60.06
29371;BME280;16357;52.188;7.838;2023-04-26T01:55:02;101093.06;;;4.01;60.01
29371;BME280;16357;52.188;7.838;2023-04-26T01:57:29;101090.72;;;3.96;60.21
29371;BME280;16357;52.188;7.838;2023-04-26T01:59:55;101094.34;;;3.95;60.13
29371;BME280;16357;52.188;7.838;2023-04-26T02:02:22;101091.91;;;3.92;60.10
29371;BME280;16357;52.188;7.838;2023-04-26T02:04:48;101089.44;;;3.89;60.29
29371;BME280;16357;52.188;7.838;2023-04-26T02:07:15;101092.31;;;3.86;60.07
29371;BME280;16357;52.188;7.838;2023-04-26T02:09:41;101088.06;;;3.84;60.12
29371;BME280;16357;52.188;7.838;2023-04-26T02:12:07;101091.75;;;3.81;60.22
29371;BME280;16357;52.188;7.838;2023-04-26T02:14:34;101087.53;;;3.79;60.11
29371;BME280;16357;52.188;7.838;2023-04-26T02:17:02;101088.56;;;3.76;60.56
29371;BME280;16357;52.188;7.838;2023-04-26T02:19:29;101091.34;;;3.74;60.21
29371;BME280;16357;52.188;7.838;2023-04-26T02:21:57;101090.69;;;3.71;60.48
29371;BME280;16357;52.188;7.838;2023-04-26T02:24:24;101092.63;;;3.69;60.16
29371;BME280;16357;52.188;7.838;2023-04-26T02:26:50;101095.44;;;3.66;60.44
29371;BME280;16357;52.188;7.838;2023-04-26T02:29:20;101099.16;;;3.63;60.24
29371;BME280;16357;52.188;7.838;2023-04-26T02:32:05;101095.78;;;3.61;60.19
29371;BME280;16357;52.188;7.838;2023-04-26T02:34:33;101092.38;;;3.59;60.08
29371;BME280;16357;52.188;7.838;2023-04-26T02:36:59;101100.53;;;3.56;60.19
29371;BME280;16357;52.188;7.838;2023-04-26T02:39:25;101095.34;;;3.55;60.26
29371;BME280;16357;52.188;7.838;2023-04-26T02:41:52;101096.50;;;3.50;60.44
29371;BME280;16357;52.188;7.838;2023-04-26T02:44:18;101102.75;;;3.49;60.69
29371;BME280;16357;52.188;7.838;2023-04-26T02:46:44;101102.94;;;3.46;60.58
29371;BME280;16357;52.188;7.838;2023-04-26T02:49:11;101103.16;;;3.43;60.57
29371;BME280;16357;52.188;7.838;2023-04-26T02:51:37;101109.50;;;3.41;60.75
29371;BME280;16357;52.188;7.838;2023-04-26T02:54:04;101102.63;;;3.38;60.79
29371;BME280;16357;52.188;7.838;2023-04-26T02:56:32;101101.00;;;3.36;60.78
29371;BME280;16357;52.188;7.838;2023-04-26T02:58:58;101109.06;;;3.34;60.51
29371;BME280;16357;52.188;7.838;2023-04-26T03:01:25;101104.81;;;3.32;60.74
29371;BME280;16357;52.188;7.838;2023-04-26T03:03:53;101105.84;;;3.29;61.01
29371;BME280;16357;52.188;7.838;2023-04-26T03:06:19;101107.78;;;3.27;60.65
29371;BME280;16357;52.188;7.838;2023-04-26T03:08:46;101111.34;;;3.26;60.79
29371;BME280;16357;52.188;7.838;2023-04-26T03:11:12;101103.53;;;3.24;60.88
29371;BME280;16357;52.188;7.838;2023-04-26T03:13:38;101102.78;;;3.22;60.90
29371;BME280;16357;52.188;7.838;2023-04-26T03:16:05;101103.81;;;3.20;61.05
29371;BME280;16357;52.188;7.838;2023-04-26T03:18:32;101111.78;;;3.20;60.81
29371;BME280;16357;52.188;7.838;2023-04-26T03:20:58;101110.16;;;3.17;60.93
29371;BME280;16357;52.188;7.838;2023-04-26T03:23:24;101111.13;;;3.16;60.92
29371;BME280;16357;52.188;7.838;2023-04-26T03:25:51;101108.56;;;3.15;60.85
29371;BME280;16357;52.188;7.838;2023-04-26T03:28:18;101101.56;;;3.14;61.37
29371;BME280;16357;52.188;7.838;2023-04-26T03:30:44;101105.28;;;3.11;61.32
29371;BME280;16357;52.188;7.838;2023-04-26T03:33:11;101100.06;;;3.10;60.74
29371;BME280;16357;52.188;7.838;2023-04-26T03:35:38;101104.50;;;3.09;61.04
29371;BME280;16357;52.188;7.838;2023-04-26T03:38:05;101097.50;;;3.08;60.99
29371;BME280;16357;52.188;7.838;2023-04-26T03:40:31;101100.25;;;3.06;60.98
29371;BME280;16357;52.188;7.838;2023-04-26T03:42:58;101095.94;;;3.05;61.21
29371;BME280;16357;52.188;7.838;2023-04-26T03:45:24;101094.22;;;3.04;61.22
29371;BME280;16357;52.188;7.838;2023-04-26T03:47:52;101100.47;;;3.03;61.17
29371;BME280;16357;52.188;7.838;2023-04-26T03:50:18;101096.84;;;3.04;61.16
29371;BME280;16357;52.188;7.838;2023-04-26T03:52:45;101097.91;;;3.02;61.17
29371;BME280;16357;52.188;7.838;2023-04-26T03:55:11;101100.66;;;3.00;61.17
29371;BME280;16357;52.188;7.838;2023-04-26T03:57:38;101098.94;;;2.99;61.03
29371;BME280;16357;52.188;7.838;2023-04-26T04:00:04;101100.00;;;2.97;61.28
29371;BME280;16357;52.188;7.838;2023-04-26T04:02:40;101097.25;;;2.98;61.51
29371;BME280;16357;52.188;7.838;2023-04-26T04:05:07;101096.50;;;2.96;61.18
29371;BME280;16357;52.188;7.838;2023-04-26T04:07:34;101093.09;;;2.94;61.05
29371;BME280;16357;52.188;7.838;2023-04-26T04:10:01;101092.34;;;2.92;61.27
29371;BME280;16357;52.188;7.838;2023-04-26T04:12:27;101091.59;;;2.90;61.46
29371;BME280;16357;52.188;7.838;2023-04-26T04:14:54;101088.00;;;2.91;61.22
29371;BME280;16357;52.188;7.838;2023-04-26T04:17:20;101090.66;;;2.91;61.66
29371;BME280;16357;52.188;7.838;2023-04-26T04:19:46;101095.09;;;2.91;61.68
29371;BME280;16357;52.188;7.838;2023-04-26T04:22:13;101099.44;;;2.92;61.71
29371;BME280;16357;52.188;7.838;2023-04-26T04:24:39;101102.84;;;2.94;61.78
29371;BME280;16357;52.188;7.838;2023-04-26T04:27:07;101104.44;;;2.96;61.99
29371;BME280;16357;52.188;7.838;2023-04-26T04:29:34;101100.84;;;2.97;61.84
29371;BME280;16357;52.188;7.838;2023-04-26T04:32:00;101104.16;;;3.01;61.93
29371;BME280;16357;52.188;7.838;2023-04-26T04:34:27;101100.25;;;3.06;62.08
29371;BME280;16357;52.188;7.838;2023-04-26T04:36:53;101097.41;;;3.10;62.17
29371;BME280;16357;52.188;7.838;2023-04-26T04:39:20;101105.06;;;3.14;62.33
29371;BME280;16357;52.188;7.838;2023-04-26T04:41:46;101095.03;;;3.19;62.28
29371;BME280;16357;52.188;7.838;2023-04-26T04:44:14;101108.72;;;3.26;62.69
29371;BME280;16357;52.188;7.838;2023-04-26T04:46:44;101105.69;;;3.32;62.31
29371;BME280;16357;52.188;7.838;2023-04-26T04:49:11;101113.22;;;3.38;62.90
29371;BME280;16357;52.188;7.838;2023-04-26T04:51:38;101106.56;;;3.45;62.67
29371;BME280;16357;52.188;7.838;2023-04-26T04:54:09;101110.50;;;3.52;62.68
29371;BME280;16357;52.188;7.838;2023-04-26T04:56:36;101105.56;;;3.61;62.85
29371;BME280;16357;52.188;7.838;2023-04-26T04:59:03;101108.63;;;3.67;62.67
29371;BME280;16357;52.188;7.838;2023-04-26T05:01:30;101116.16;;;3.73;62.50
29371;BME280;16357;52.188;7.838;2023-04-26T05:03:58;101114.06;;;3.79;62.38
29371;BME280;16357;52.188;7.838;2023-04-26T05:06:28;101113.75;;;3.83;62.00
29371;BME280;16357;52.188;7.838;2023-04-26T05:08:55;101118.00;;;3.86;62.26
29371;BME280;16357;52.188;7.838;2023-04-26T05:11:21;101114.28;;;3.88;62.37
29371;BME280;16357;52.188;7.838;2023-04-26T05:13:48;101117.69;;;3.90;62.05
29371;BME280;16357;52.188;7.838;2023-04-26T05:16:18;101114.06;;;3.91;62.34
29371;BME280;16357;52.188;7.838;2023-04-26T05:18:45;101122.78;;;3.93;62.23
29371;BME280;16357;52.188;7.838;2023-04-26T05:21:11;101119.16;;;3.94;62.04
29371;BME280;16357;52.188;7.838;2023-04-26T05:23:38;101115.47;;;3.97;62.20
29371;BME280;16357;52.188;7.838;2023-04-26T05:26:05;101122.38;;;4.00;62.39
29371;BME280;16357;52.188;7.838;2023-04-26T05:28:32;101118.56;;;4.04;62.45
29371;BME280;16357;52.188;7.838;2023-04-26T05:30:59;101124.50;;;4.07;62.56
29371;BME280;16357;52.188;7.838;2023-04-26T05:33:29;101126.00;;;4.11;62.87
29371;BME280;16357;52.188;7.838;2023-04-26T05:35:56;101126.63;;;4.15;62.84
29371;BME280;16357;52.188;7.838;2023-04-26T05:38:23;101118.22;;;4.21;63.12
29371;BME280;16357;52.188;7.838;2023-04-26T05:40:50;101124.94;;;4.27;63.04
29371;BME280;16357;52.188;7.838;2023-04-26T05:43:16;101129.81;;;4.33;62.88
29371;BME280;16357;52.188;7.838;2023-04-26T05:45:50;101131.19;;;4.38;62.98
29371;BME280;16357;52.188;7.838;2023-04-26T05:48:17;101137.78;;;4.46;63.15
29371;BME280;16357;52.188;7.838;2023-04-26T05:50:43;101129.38;;;4.52;63.12
29371;BME280;16357;52.188;7.838;2023-04-26T05:53:09;101139.69;;;4.56;62.69
29371;BME280;16357;52.188;7.838;2023-04-26T05:55:36;101142.75;;;4.63;62.70
29371;BME280;16357;52.188;7.838;2023-04-26T05:58:02;101136.19;;;4.69;62.98
29371;BME280;16357;52.188;7.838;2023-04-26T06:00:30;101142.88;;;4.74;62.50
29371;BME280;16357;52.188;7.838;2023-04-26T06:02:56;101138.06;;;4.79;62.83
29371;BME280;16357;52.188;7.838;2023-04-26T06:05:23;101142.19;;;4.83;63.00
29371;BME280;16357;52.188;7.838;2023-04-26T06:07:50;101148.03;;;4.89;63.03
29371;BME280;16357;52.188;7.838;2023-04-26T06:10:17;101148.66;;;4.92;62.82
29371;BME280;16357;52.188;7.838;2023-04-26T06:12:43;101158.03;;;4.98;62.94
29371;BME280;16357;52.188;7.838;2023-04-26T06:15:10;101165.66;;;5.02;62.57
29371;BME280;16357;52.188;7.838;2023-04-26T06:17:37;101162.66;;;5.07;62.73
29371;BME280;16357;52.188;7.838;2023-04-26T06:20:04;101161.50;;;5.11;62.94
29371;BME280;16357;52.188;7.838;2023-04-26T06:22:30;101159.47;;;5.15;62.73
29371;BME280;16357;52.188;7.838;2023-04-26T06:24:57;101159.97;;;5.20;62.85
29371;BME280;16357;52.188;7.838;2023-04-26T06:27:23;101159.66;;;5.24;63.24
29371;BME280;16357;52.188;7.838;2023-04-26T06:29:50;101157.38;;;5.31;62.84
29371;BME280;16357;52.188;7.838;2023-04-26T06:32:17;101153.41;;;5.37;62.84
29371;BME280;16357;52.188;7.838;2023-04-26T06:34:44;101162.66;;;5.44;63.04
29371;BME280;16357;52.188;7.838;2023-04-26T06:37:10;101160.50;;;5.49;63.27
29371;BME280;16357;52.188;7.838;2023-04-26T06:39:37;101164.41;;;5.56;63.02
29371;BME280;16357;52.188;7.838;2023-04-26T06:42:04;101165.63;;;5.63;62.87
29371;BME280;16357;52.188;7.838;2023-04-26T06:44:31;101152.72;;;5.70;63.42
29371;BME280;16357;52.188;7.838;2023-04-26T06:46:58;101168.88;;;5.80;63.16
29371;BME280;16357;52.188;7.838;2023-04-26T06:49:24;101166.34;;;5.89;62.98
29371;BME280;16357;52.188;7.838;2023-04-26T06:51:51;101160.38;;;5.99;63.12
29371;BME280;16357;52.188;7.838;2023-04-26T06:54:18;101164.88;;;6.09;62.73
29371;BME280;16357;52.188;7.838;2023-04-26T06:56:47;101166.00;;;6.18;62.51
29371;BME280;16357;52.188;7.838;2023-04-26T06:59:15;101160.81;;;6.28;62.94
29371;BME280;16357;52.188;7.838;2023-04-26T07:01:41;101164.47;;;6.38;62.90
29371;BME280;16357;52.188;7.838;2023-04-26T07:04:08;101168.97;;;6.49;62.89
29371;BME280;16357;52.188;7.838;2023-04-26T07:06:37;101168.84;;;6.62;63.04
29371;BME280;16357;52.188;7.838;2023-04-26T07:09:04;101167.03;;;6.73;62.81
29371;BME280;16357;52.188;7.838;2023-04-26T07:11:30;101175.88;;;6.85;62.21
29371;BME280;16357;52.188;7.838;2023-04-26T07:13:57;101175.75;;;6.98;62.27
29371;BME280;16357;52.188;7.838;2023-04-26T07:16:23;101167.59;;;7.11;62.47
29371;BME280;16357;52.188;7.838;2023-04-26T07:18:51;101165.63;;;7.24;61.98
29371;BME280;16357;52.188;7.838;2023-04-26T07:21:23;101173.38;;;7.38;61.79
29371;BME280;16357;52.188;7.838;2023-04-26T07:23:56;101172.13;;;7.54;61.29
29371;BME280;16357;52.188;7.838;2023-04-26T07:26:24;101168.31;;;7.67;60.99
29371;BME280;16357;52.188;7.838;2023-04-26T07:28:52;101164.50;;;7.81;60.48
29371;BME280;16357;52.188;7.838;2023-04-26T07:31:19;101169.53;;;7.96;60.32
29371;BME280;16357;52.188;7.838;2023-04-26T07:37:27;101175.56;;;8.30;59.99
29371;BME280;16357;52.188;7.838;2023-04-26T07:40:11;101164.41;;;8.46;59.55
29371;BME280;16357;52.188;7.838;2023-04-26T07:42:38;101162.38;;;8.59;59.20
29371;BME280;16357;52.188;7.838;2023-04-26T07:45:05;101165.94;;;8.69;59.01
29371;BME280;16357;52.188;7.838;2023-04-26T07:47:32;101161.22;;;8.83;58.47
29371;BME280;16357;52.188;7.838;2023-04-26T07:49:58;101160.41;;;8.92;57.94
29371;BME280;16357;52.188;7.838;2023-04-26T07:52:24;101160.16;;;9.05;57.70
29371;BME280;16357;52.188;7.838;2023-04-26T07:54:51;101161.88;;;9.15;56.95
29371;BME280;16357;52.188;7.838;2023-04-26T07:57:17;101164.31;;;9.28;57.21
29371;BME280;16357;52.188;7.838;2023-04-26T07:59:43;101156.88;;;9.41;56.15
29371;BME280;16357;52.188;7.838;2023-04-26T08:02:10;101161.97;;;9.54;55.47
29371;BME280;16357;52.188;7.838;2023-04-26T08:04:36;101159.72;;;9.69;54.54
29371;BME280;16357;52.188;7.838;2023-04-26T08:07:03;101159.28;;;9.83;54.80
29371;BME280;16357;52.188;7.838;2023-04-26T08:09:29;101147.44;;;9.96;54.98
29371;BME280;16357;52.188;7.838;2023-04-26T08:11:56;101153.47;;;10.07;54.84
29371;BME280;16357;52.188;7.838;2023-04-26T08:14:23;101149.66;;;10.20;54.09
29371;BME280;16357;52.188;7.838;2023-04-26T08:16:49;101150.66;;;10.28;53.93
29371;BME280;16357;52.188;7.838;2023-04-26T08:19:17;101156.16;;;10.37;53.81
29371;BME280;16357;52.188;7.838;2023-04-26T08:21:43;101155.72;;;10.41;53.32
29371;BME280;16357;52.188;7.838;2023-04-26T08:24:09;101156.44;;;10.43;52.66
29371;BME280;16357;52.188;7.838;2023-04-26T08:26:36;101158.09;;;10.44;52.53
29371;BME280;16357;52.188;7.838;2023-04-26T08:29:02;101157.41;;;10.42;52.83
29371;BME280;16357;52.188;7.838;2023-04-26T08:31:29;101153.16;;;10.40;52.46
29371;BME280;16357;52.188;7.838;2023-04-26T08:33:55;101153.34;;;10.38;52.80
29371;BME280;16357;52.188;7.838;2023-04-26T08:36:22;101157.84;;;10.38;52.96
29371;BME280;16357;52.188;7.838;2023-04-26T08:38:48;101157.84;;;10.38;52.87
29371;BME280;16357;52.188;7.838;2023-04-26T08:41:21;101162.09;;;10.40;53.36
29371;BME280;16357;52.188;7.838;2023-04-26T08:43:49;101161.94;;;10.42;53.26
29371;BME280;16357;52.188;7.838;2023-04-26T08:46:18;101165.56;;;10.50;53.03
29371;BME280;16357;52.188;7.838;2023-04-26T08:48:49;101161.31;;;10.58;52.88
29371;BME280;16357;52.188;7.838;2023-04-26T08:51:19;101157.47;;;10.70;52.58
29371;BME280;16357;52.188;7.838;2023-04-26T08:53:48;101152.44;;;10.85;52.69
29371;BME280;16357;52.188;7.838;2023-04-26T08:56:21;101151.13;;;10.98;51.53
29371;BME280;16357;52.188;7.838;2023-04-26T08:58:48;101149.06;;;11.10;50.39
29371;BME280;16357;52.188;7.838;2023-04-26T09:01:15;101156.78;;;11.23;50.32
29371;BME280;16357;52.188;7.838;2023-04-26T09:03:43;101160.13;;;11.35;50.02
29371;BME280;16357;52.188;7.838;2023-04-26T09:06:10;101158.34;;;11.43;49.56
29371;BME280;16357;52.188;7.838;2023-04-26T09:08:39;101158.13;;;11.55;49.55
29371;BME280;16357;52.188;7.838;2023-04-26T09:11:06;101161.06;;;11.61;48.74
29371;BME280;16357;52.188;7.838;2023-04-26T09:13:33;101161.28;;;11.68;48.32
29371;BME280;16357;52.188;7.838;2023-04-26T09:15:59;101163.66;;;11.71;47.89
29371;BME280;16357;52.188;7.838;2023-04-26T09:18:29;101148.22;;;11.73;47.50
29371;BME280;16357;52.188;7.838;2023-04-26T09:21:06;101153.28;;;11.76;47.63
29371;BME280;16357;52.188;7.838;2023-04-26T09:23:33;101157.00;;;11.75;47.48
29371;BME280;16357;52.188;7.838;2023-04-26T09:26:17;101150.28;;;11.79;47.59
29371;BME280;16357;52.188;7.838;2023-04-26T09:28:44;101159.75;;;11.83;48.02
29371;BME280;16357;52.188;7.838;2023-04-26T09:31:34;101157.47;;;11.89;46.45
29371;BME280;16357;52.188;7.838;2023-04-26T09:34:01;101155.47;;;11.91;45.96
29371;BME280;16357;52.188;7.838;2023-04-26T09:36:28;101159.16;;;11.90;45.71
29371;BME280;16357;52.188;7.838;2023-04-26T09:38:54;101162.84;;;11.89;45.14
29371;BME280;16357;52.188;7.838;2023-04-26T09:41:21;101157.91;;;11.84;45.25
29371;BME280;16357;52.188;7.838;2023-04-26T09:43:51;101167.44;;;11.78;45.29
29371;BME280;16357;52.188;7.838;2023-04-26T09:46:21;101170.88;;;11.71;45.91
29371;BME280;16357;52.188;7.838;2023-04-26T09:49:00;101166.28;;;11.63;45.99
29371;BME280;16357;52.188;7.838;2023-04-26T09:51:28;101167.91;;;11.56;45.15
29371;BME280;16357;52.188;7.838;2023-04-26T09:53:54;101178.41;;;11.49;45.02
29371;BME280;16357;52.188;7.838;2023-04-26T09:56:22;101172.75;;;11.42;45.27
29371;BME280;16357;52.188;7.838;2023-04-26T10:01:18;101170.31;;;11.31;45.91
29371;BME280;16357;52.188;7.838;2023-04-26T10:03:45;101175.13;;;11.28;45.44
29371;BME280;16357;52.188;7.838;2023-04-26T10:06:13;101185.19;;;11.26;45.86
29371;BME280;16357;52.188;7.838;2023-04-26T10:08:39;101178.97;;;11.25;45.92
29371;BME280;16357;52.188;7.838;2023-04-26T10:11:06;101172.59;;;11.26;46.03
29371;BME280;16357;52.188;7.838;2023-04-26T10:13:33;101165.22;;;11.28;46.75
29371;BME280;16357;52.188;7.838;2023-04-26T10:16:00;101165.50;;;11.35;47.29
29371;BME280;16357;52.188;7.838;2023-04-26T10:18:33;101167.41;;;11.42;46.45
29371;BME280;16357;52.188;7.838;2023-04-26T10:21:09;101158.56;;;11.50;45.98
29371;BME280;16357;52.188;7.838;2023-04-26T10:23:37;101157.16;;;11.56;45.82
29371;BME280;16357;52.188;7.838;2023-04-26T10:26:04;101159.34;;;11.60;46.29
29371;BME280;16357;52.188;7.838;2023-04-26T10:28:53;101153.66;;;11.63;46.06
29371;BME280;16357;52.188;7.838;2023-04-26T10:34:33;101153.16;;;11.60;45.90
29371;BME280;16357;52.188;7.838;2023-04-26T10:39:41;101149.53;;;11.51;46.12
29371;BME280;16357;52.188;7.838;2023-04-26T10:42:27;101162.28;;;11.49;46.15
29371;BME280;16357;52.188;7.838;2023-04-26T10:44:58;101163.56;;;11.45;46.10
29371;BME280;16357;52.188;7.838;2023-04-26T10:50:05;101164.03;;;11.40;46.40
29371;BME280;16357;52.188;7.838;2023-04-26T10:52:33;101161.66;;;11.37;46.04
29371;BME280;16357;52.188;7.838;2023-04-26T10:55:00;101166.16;;;11.37;46.08
29371;BME280;16357;52.188;7.838;2023-04-26T10:57:53;101157.25;;;11.36;46.60
29371;BME280;16357;52.188;7.838;2023-04-26T11:00:26;101149.91;;;11.38;46.36
29371;BME280;16357;52.188;7.838;2023-04-26T11:03:04;101155.28;;;11.38;46.33
29371;BME280;16357;52.188;7.838;2023-04-26T11:05:41;101155.28;;;11.38;45.99
29371;BME280;16357;52.188;7.838;2023-04-26T11:10:39;101157.25;;;11.36;46.05
29371;BME280;16357;52.188;7.838;2023-04-26T11:13:06;101152.91;;;11.35;46.34
29371;BME280;16357;52.188;7.838;2023-04-26T11:15:33;101151.91;;;11.36;46.31
29371;BME280;16357;52.188;7.838;2023-04-26T11:18:03;101157.13;;;11.38;46.48
29371;BME280;16357;52.188;7.838;2023-04-26T11:20:31;101151.59;;;11.39;46.38
29371;BME280;16357;52.188;7.838;2023-04-26T11:22:58;101142.25;;;11.43;46.96
29371;BME280;16357;52.188;7.838;2023-04-26T11:25:25;101144.16;;;11.51;46.98
29371;BME280;16357;52.188;7.838;2023-04-26T11:28:00;101149.16;;;11.64;46.80
29371;BME280;16357;52.188;7.838;2023-04-26T11:30:29;101149.75;;;11.76;46.72
29371;BME280;16357;52.188;7.838;2023-04-26T11:33:00;101139.34;;;11.91;46.26
29371;BME280;16357;52.188;7.838;2023-04-26T11:35:27;101138.63;;;12.06;46.15
29371;BME280;16357;52.188;7.838;2023-04-26T11:37:58;101143.13;;;12.24;46.26
29371;BME280;16357;52.188;7.838;2023-04-26T11:40:29;101143.41;;;12.39;45.94
29371;BME280;16357;52.188;7.838;2023-04-26T11:43:05;101150.56;;;12.56;45.51
29371;BME280;16357;52.188;7.838;2023-04-26T11:45:34;101143.91;;;12.68;45.27
29371;BME280;16357;52.188;7.838;2023-04-26T11:48:02;101136.91;;;12.84;45.16
29371;BME280;16357;52.188;7.838;2023-04-26T11:50:33;101140.69;;;12.99;44.37
29371;BME280;16357;52.188;7.838;2023-04-26T11:53:02;101128.63;;;13.11;44.35
29371;BME280;16357;52.188;7.838;2023-04-26T11:55:30;101133.34;;;13.26;43.77
29371;BME280;16357;52.188;7.838;2023-04-26T11:57:58;101135.63;;;13.38;42.32
29371;BME280;16357;52.188;7.838;2023-04-26T12:00:25;101130.94;;;13.49;41.99
29371;BME280;16357;52.188;7.838;2023-04-26T12:02:52;101134.47;;;13.57;41.40
29371;BME280;16357;52.188;7.838;2023-04-26T12:05:27;101143.59;;;13.65;41.96
29371;BME280;16357;52.188;7.838;2023-04-26T12:07:57;101132.47;;;13.68;41.29
29371;BME280;16357;52.188;7.838;2023-04-26T12:10:30;101141.22;;;13.70;41.23
29371;BME280;16357;52.188;7.838;2023-04-26T12:12:58;101129.91;;;13.74;41.88
29371;BME280;16357;52.188;7.838;2023-04-26T12:15:27;101129.09;;;13.82;41.61
29371;BME280;16357;52.188;7.838;2023-04-26T12:18:14;101134.31;;;13.92;41.41
29371;BME280;16357;52.188;7.838;2023-04-26T12:20:42;101141.56;;;13.99;40.61
29371;BME280;16357;52.188;7.838;2023-04-26T12:23:13;101133.81;;;14.04;40.83
29371;BME280;16357;52.188;7.838;2023-04-26T12:25:41;101136.00;;;14.09;41.16
29371;BME280;16357;52.188;7.838;2023-04-26T12:28:16;101122.19;;;14.12;40.43
29371;BME280;16357;52.188;7.838;2023-04-26T12:30:42;101130.94;;;14.14;40.82
29371;BME280;16357;52.188;7.838;2023-04-26T12:33:09;101128.06;;;14.16;40.50
29371;BME280;16357;52.188;7.838;2023-04-26T12:35:43;101121.31;;;14.20;40.74
29371;BME280;16357;52.188;7.838;2023-04-26T12:38:09;101122.66;;;14.24;39.77
29371;BME280;16357;52.188;7.838;2023-04-26T12:40:37;101118.44;;;14.30;39.76
29371;BME280;16357;52.188;7.838;2023-04-26T12:43:04;101124.00;;;14.36;39.03
29371;BME280;16357;52.188;7.838;2023-04-26T12:45:30;101128.34;;;14.45;39.13
29371;BME280;16357;52.188;7.838;2023-04-26T12:47:57;101119.56;;;14.52;39.47
29371;BME280;16357;52.188;7.838;2023-04-26T12:50:24;101122.44;;;14.58;39.10
29371;BME280;16357;52.188;7.838;2023-04-26T12:52:50;101120.75;;;14.65;38.79
29371;BME280;16357;52.188;7.838;2023-04-26T12:55:18;101126.31;;;14.72;38.82
29371;BME280;16357;52.188;7.838;2023-04-26T12:57:45;101113.13;;;14.77;37.94
29371;BME280;16357;52.188;7.838;2023-04-26T13:00:13;101117.13;;;14.81;38.35
29371;BME280;16357;52.188;7.838;2023-04-26T13:02:40;101123.22;;;14.83;37.71
29371;BME280;16357;52.188;7.838;2023-04-26T13:05:07;101121.19;;;14.85;38.34
29371;BME280;16357;52.188;7.838;2023-04-26T13:07:36;101121.00;;;14.87;37.88
29371;BME280;16357;52.188;7.838;2023-04-26T13:10:05;101121.81;;;14.87;38.04
29371;BME280;16357;52.188;7.838;2023-04-26T13:12:38;101118.13;;;14.88;38.11
29371;BME280;16357;52.188;7.838;2023-04-26T13:15:06;101121.50;;;14.90;38.12
29371;BME280;16357;52.188;7.838;2023-04-26T13:17:34;101113.72;;;14.96;38.47
29371;BME280;16357;52.188;7.838;2023-04-26T13:20:05;101114.88;;;15.01;38.47